AirNav   ATP
 
 1582 users online  

X10 Belle Glade State Municipal Airport
Belle Glade, Florida, USA

GOING TO BELLE GLADE?


FAA INFORMATION EFFECTIVE 19 JULY 2018

Location

FAA Identifier: X10
Lat/Long: 26-41-53.9000N / 080-39-38.9000W
26-41.898333N / 080-39.648333W
26.6983056 / -80.6608056
(estimated)
Elevation: 14 ft. / 4 m (estimated)
Variation: 03W (1985)
From city: 1 mile NE of BELLE GLADE, FL
Time zone: UTC -4 (UTC -5 during Standard Time)
Zip code: 33430

Airport Operations

Airport use: Open to the public
Activation date: 04/1940
Control tower: no
ARTCC: MIAMI CENTER
FSS: MIAMI FLIGHT SERVICE STATION
NOTAMs facility: MIA (NOTAM-D service available)
Attendance: UNATNDD
Wind indicator: lighted, WIND SOCK TORN OFF
Segmented circle: no

Airport Communications

CTAF: 122.9

Nearby radio navigation aids

VOR radial/distance  VOR name  Freq  Var
PHKr162/5.3PAHOKEE VOR/DME115.4000E
PBIr275/30.8PALM BEACH VORTAC115.7003W
LBVr100/39.9LA BELLE VORTAC110.4001E

 
NDB name  Hdg/Dist  Freq  Var  ID
UNITED239/21.540505WUTX ..- - -..-

Airport Services

Airframe service: NONE
Powerplant service: NONE
Bottled oxygen: NONE
Bulk oxygen: NONE

Runway Information

Runway 9/27

Dimensions: 3750 x 50 ft. / 1143 x 15 m
Surface: asphalt, in excellent condition
RUNWAY 9  RUNWAY 27
Latitude: 26-41.898167N26-41.897333N
Longitude: 080-39.992167W080-39.303000W
Elevation: 14.0 ft.11.0 ft.
Gradient: 0.1%0.1%
Traffic pattern: leftleft
Runway heading: 093 magnetic, 090 true273 magnetic, 270 true
Displaced threshold: 225 ft.75 ft.
Declared distances: TORA:3750 TODA:3750TORA:3750 TODA:3750
Markings: basic, in good conditionbasic, in good condition
Obstructions: 35 ft. tree, 900 ft. from runway, 30 ft. left of centerline, 20:1 slope to clear52 ft. pole, 1374 ft. from runway, 30 ft. left of centerline, 22:1 slope to clear

Airport Ownership and Management from official FAA records

Ownership: Publicly-owned
Owner: CITY OF BELLE GLADE
110 DR. MARTIN LUTHER KING JR. BLVD
BELLE GLADE, FL 33430-3900
Phone 561-996-0100
CONTACT PERSON: LOMAX HARRELLE 561-992-1601
Manager: MARCOS MONTES DE OCA
110 DR. MARTIN LUTHER KING JR. BLVD
BELLE GLADE, FL 33430
Phone 561-996-0100

Airport Operational Statistics

Aircraft based on the field: 11
Single engine airplanes: 10
Helicopters: 1
    
Aircraft operations: avg 34/week *
67% local general aviation
33% transient general aviation
* for 12-month period ending 22 March 2017

Additional Remarks

RY 09 NIGHT LNDGS NOT ADVISED DUE TO UNLGTD POWER LINES IN APCH.
BERM FULL LENGTH OF RY 113 FT N OF CNTRLN, RY 09/27.

Instrument Procedures

There are no published instrument procedures at X10.

Some nearby airports with instrument procedures:

KPHK - Palm Beach County Glades Airport (5 nm N)
2IS - Airglades Airport (21 nm W)
06FA - William P Gwinn Airport (22 nm NE)
F45 - North Palm Beach County General Aviation Airport (25 nm E)
KPBI - Palm Beach International Airport (30 nm E)
 
Loc | Ops | Rwys | IFR | FBO | Links
Com | Nav | Svcs | Stats | Notes

Reliance Aviation
AirBoss

 
Area around X10 (Belle Glade State Municipal Airport)
 
Road maps at: MapQuest Bing Google
 
Aerial photo
WARNING: Photo may not be current or correct
Aerial photo of X10 (Belle Glade State Municipal Airport)
Do you have a better or more recent aerial photo of Belle Glade State Municipal Airport that you would like to share? If so, please send us your photo.

 
Sectional chart

 
Airport distance calculator
Flying to Belle Glade State Municipal Airport? Find the distance to fly.

From to X10

Sunrise and sunset
Times for 19-Jul-2018
 Local
(UTC-4)
 Zulu
(UTC)
Morning civil twilight06:1610:16
Sunrise06:4210:42
Sunset20:1600:16
Evening civil twilight20:4200:42

Current date and time
Zulu (UTC)  19-Jul-2018 17:33:17
Local (UTC-4)  19-Jul-2018 13:33:17
 
METAR
KF45 
25nm E 
191710Z AUTO 22007KT 10SM SCT043 SCT050 34/23 A3002 RMK AO2
KPBI 
30nm E 
191653Z 12008KT 10SM SCT035TCU SCT044 BKN060 31/23 A3002 RMK AO2 SLP164 TCU NE-S T03110233 $
KLNA 
32nm E 
191715Z AUTO 16007KT SCT041 SCT050 33/24 A3002 RMK AO2 T03300241 PWINO
KOBE 
35nm N 
191715Z AUTO 19008KT 10SM SCT032 BKN044 BKN055 31/25 A3000 RMK AO2 LTG DSNT NW
KBCT 
36nm SE 
191647Z 15005KT 10SM SCT028 33/24 A3002
KSUA 
38nm NE 
191647Z 21007KT 7SM SCT025 SCT040 33/22 A3003
KFXE 
39nm SE 
191653Z 00000KT 10SM FEW020 SCT035 33/23 A3002 RMK AO2 SLP167 T03330228
KPMP 
40nm SE 
191653Z 13010KT 10SM CLR 34/23 A3002 RMK AO2 SLP165 T03390233
KIMM 
43nm W 
191715Z AUTO RMK AO2 PNO PWINO TSNO
KFLL 
47nm SE 
191653Z 15006KT 10SM FEW030 FEW075 FEW250 32/25 A3001 RMK AO2 RAE00 SLP163 P0000 T03170250
TAF
KPBI 
30nm E 
191455Z 1915/2012 22004KT P6SM FEW028 SCT250 FM191700 16010KT P6SM SCT035 FM192000 14014KT P6SM VCTS SCT035CB SCT250 FM200100 17005KT P6SM BKN100
KSUA 
38nm NE 
191125Z 1912/2012 22004KT P6SM SKC FM191400 22007KT P6SM SCT040 FM191800 16011KT P6SM VCTS SCT040CB SCT080 BKN120 TEMPO 1919/1923 3SM TSRA BKN020CB OVC040 FM200000 18007KT P6SM FEW050 SCT080 BKN150 FM200400 21003KT P6SM SCT120
NOTAMs
Click for the latest NOTAMs
NOTAMs are issued by the DoD/FAA and will open in a separate window not controlled by AirNav.

 

 
 

Would you like to see your business listed on this page?

 If your business provides an interesting product or service to pilots, flight crews, aircraft, or users of the Belle Glade State Municipal Airport, you should consider listing it here.  To start the listing process, click on the button below
 
Add a business
 

Other Pages about Belle Glade State Municipal Airport

Update a link
 
Copyright © AirNav, LLC. All rights reserved. Privacy Policy  Contact